LFBH/LRH METAR and TAF weather

Enter ICAO airport designator
Station Type Date Time Source
LFBH METAR 2020/01/28 11:30 UTC NOAA

LFBH 281130Z AUTO 28018KT 9999 FEW033/// BKN048/// BKN058/// ///CB 10/06 Q1013 TEMPO 27020G40KT 3000 SHRA


Station Type Date Time Source
LFBH Decoded METAR 2020/01/28 11:30 UTC NOAA

La Rochelle, France (LFBH) 46-09N 001-09W 10M
Jan 28, 2020 - 06:30 AM EST / 2020.01.28 1130 UTC
Wind: from the W (280 degrees) at 21 MPH (18 KT):0
Visibility: greater than 7 mile(s):0
Sky conditions: mostly cloudy
Weather: Cumulonimbus clouds observed
Temperature: 50 F (10 C)
Dew Point: 42 F (6 C)
Relative Humidity: 76%
Pressure (altimeter): 29.91 in. Hg (1013 hPa)
ob: LFBH 281130Z AUTO 28018KT 9999 FEW033/// BKN048/// BKN058/// ///CB 10/06 Q1013 TEMPO 27020G40KT 3000 SHRA
cycle: 11

Station Type Date Time Source
LFBH TAF 2020/01/28 12:45 UTC NOAA

TAF TAF LFBH 281100Z 2812/2912 27015KT 9999 BKN030
TEMPO 2812/2820 27020G35KT 2000 SHRA BKN020TCU
TEMPO 2820/2908 4000 SHRA BKN030TCU
BECMG 2900/2902 28010KT

Example: see airport list